sensor_id;sensor_type;location;lat;lon;timestamp;P1;durP1;ratioP1;P2;durP2;ratioP2
1475;SDS011;730;48.870;12.542;2022-12-07T00:01:48;7.63;;;6.53;;
1475;SDS011;730;48.870;12.542;2022-12-07T00:04:15;8.57;;;7.47;;
1475;SDS011;730;48.870;12.542;2022-12-07T00:06:43;7.68;;;6.32;;
1475;SDS011;730;48.870;12.542;2022-12-07T00:09:12;6.97;;;6.28;;
1475;SDS011;730;48.870;12.542;2022-12-07T00:11:40;7.88;;;7.07;;
1475;SDS011;730;48.870;12.542;2022-12-07T00:14:08;7.97;;;6.82;;
1475;SDS011;730;48.870;12.542;2022-12-07T00:16:39;7.22;;;5.95;;
1475;SDS011;730;48.870;12.542;2022-12-07T00:19:05;7.55;;;6.85;;
1475;SDS011;730;48.870;12.542;2022-12-07T00:21:32;7.13;;;5.85;;
1475;SDS011;730;48.870;12.542;2022-12-07T00:24:00;7.70;;;6.32;;
1475;SDS011;730;48.870;12.542;2022-12-07T00:26:31;8.27;;;6.75;;
1475;SDS011;730;48.870;12.542;2022-12-07T00:29:00;7.28;;;6.57;;
1475;SDS011;730;48.870;12.542;2022-12-07T00:31:30;7.53;;;6.10;;
1475;SDS011;730;48.870;12.542;2022-12-07T00:34:00;7.15;;;6.45;;
1475;SDS011;730;48.870;12.542;2022-12-07T00:36:27;7.35;;;6.18;;
1475;SDS011;730;48.870;12.542;2022-12-07T00:38:54;6.57;;;5.50;;
1475;SDS011;730;48.870;12.542;2022-12-07T00:41:23;6.60;;;5.97;;
1475;SDS011;730;48.870;12.542;2022-12-07T00:43:50;6.82;;;6.18;;
1475;SDS011;730;48.870;12.542;2022-12-07T00:46:17;6.80;;;6.10;;
1475;SDS011;730;48.870;12.542;2022-12-07T00:48:44;5.32;;;4.82;;
1475;SDS011;730;48.870;12.542;2022-12-07T00:51:12;7.20;;;6.50;;
1475;SDS011;730;48.870;12.542;2022-12-07T00:53:39;6.20;;;5.60;;
1475;SDS011;730;48.870;12.542;2022-12-07T00:56:06;7.07;;;6.38;;
1475;SDS011;730;48.870;12.542;2022-12-07T00:58:33;7.10;;;5.90;;
1475;SDS011;730;48.870;12.542;2022-12-07T01:01:00;6.15;;;5.55;;
1475;SDS011;730;48.870;12.542;2022-12-07T01:03:27;5.90;;;5.15;;
1475;SDS011;730;48.870;12.542;2022-12-07T01:05:54;6.47;;;5.85;;
1475;SDS011;730;48.870;12.542;2022-12-07T01:08:21;7.13;;;6.43;;
1475;SDS011;730;48.870;12.542;2022-12-07T01:10:48;6.65;;;5.80;;
1475;SDS011;730;48.870;12.542;2022-12-07T01:13:15;7.07;;;5.53;;
1475;SDS011;730;48.870;12.542;2022-12-07T01:15:42;6.05;;;5.55;;
1475;SDS011;730;48.870;12.542;2022-12-07T01:18:09;6.85;;;6.15;;
1475;SDS011;730;48.870;12.542;2022-12-07T01:20:36;7.55;;;6.68;;
1475;SDS011;730;48.870;12.542;2022-12-07T01:23:02;6.05;;;5.55;;
1475;SDS011;730;48.870;12.542;2022-12-07T01:25:29;7.60;;;6.32;;
1475;SDS011;730;48.870;12.542;2022-12-07T01:27:55;5.75;;;5.20;;
1475;SDS011;730;48.870;12.542;2022-12-07T01:30:21;6.70;;;5.63;;
1475;SDS011;730;48.870;12.542;2022-12-07T01:32:47;6.50;;;5.85;;
1475;SDS011;730;48.870;12.542;2022-12-07T01:35:14;5.60;;;4.95;;
1475;SDS011;730;48.870;12.542;2022-12-07T01:37:40;6.03;;;5.15;;
1475;SDS011;730;48.870;12.542;2022-12-07T01:40:06;5.45;;;4.82;;
1475;SDS011;730;48.870;12.542;2022-12-07T01:42:34;6.13;;;5.45;;
1475;SDS011;730;48.870;12.542;2022-12-07T01:48:01;5.75;;;5.03;;
1475;SDS011;730;48.870;12.542;2022-12-07T01:50:29;4.78;;;4.38;;
1475;SDS011;730;48.870;12.542;2022-12-07T01:52:57;5.88;;;4.88;;
1475;SDS011;730;48.870;12.542;2022-12-07T01:55:26;6.85;;;5.78;;
1475;SDS011;730;48.870;12.542;2022-12-07T01:57:53;5.55;;;5.00;;
1475;SDS011;730;48.870;12.542;2022-12-07T02:00:21;6.47;;;5.57;;
1475;SDS011;730;48.870;12.542;2022-12-07T02:02:48;5.45;;;4.80;;
1475;SDS011;730;48.870;12.542;2022-12-07T02:05:17;5.72;;;5.15;;
1475;SDS011;730;48.870;12.542;2022-12-07T02:07:44;6.18;;;5.60;;
1475;SDS011;730;48.870;12.542;2022-12-07T02:12:42;6.40;;;4.95;;
1475;SDS011;730;48.870;12.542;2022-12-07T02:15:10;6.03;;;5.30;;
1475;SDS011;730;48.870;12.542;2022-12-07T02:17:48;5.63;;;5.10;;
1475;SDS011;730;48.870;12.542;2022-12-07T02:25:58;7.10;;;5.72;;
1475;SDS011;730;48.870;12.542;2022-12-07T02:28:35;7.13;;;6.00;;
1475;SDS011;730;48.870;12.542;2022-12-07T02:31:15;6.88;;;6.18;;
1475;SDS011;730;48.870;12.542;2022-12-07T02:33:48;6.03;;;5.43;;
1475;SDS011;730;48.870;12.542;2022-12-07T02:36:21;6.22;;;5.65;;
1475;SDS011;730;48.870;12.542;2022-12-07T02:38:55;7.25;;;6.55;;
1475;SDS011;730;48.870;12.542;2022-12-07T02:41:28;5.75;;;5.15;;
1475;SDS011;730;48.870;12.542;2022-12-07T02:43:56;5.85;;;5.10;;
1475;SDS011;730;48.870;12.542;2022-12-07T02:46:32;6.30;;;5.70;;
1475;SDS011;730;48.870;12.542;2022-12-07T02:49:01;7.75;;;6.13;;
1475;SDS011;730;48.870;12.542;2022-12-07T02:51:31;6.70;;;6.00;;
1475;SDS011;730;48.870;12.542;2022-12-07T02:53:59;5.60;;;4.95;;
1475;SDS011;730;48.870;12.542;2022-12-07T02:56:38;5.82;;;4.88;;
1475;SDS011;730;48.870;12.542;2022-12-07T02:59:22;5.25;;;4.60;;
1475;SDS011;730;48.870;12.542;2022-12-07T03:07:42;5.82;;;4.63;;
1475;SDS011;730;48.870;12.542;2022-12-07T03:15:49;5.78;;;4.82;;
1475;SDS011;730;48.870;12.542;2022-12-07T03:18:28;5.60;;;4.70;;
1475;SDS011;730;48.870;12.542;2022-12-07T03:20:58;6.32;;;4.95;;
1475;SDS011;730;48.870;12.542;2022-12-07T03:23:29;5.13;;;4.03;;
1475;SDS011;730;48.870;12.542;2022-12-07T03:26:00;5.15;;;4.68;;
1475;SDS011;730;48.870;12.542;2022-12-07T03:28:28;5.63;;;5.05;;
1475;SDS011;730;48.870;12.542;2022-12-07T03:31:13;5.45;;;4.95;;
1475;SDS011;730;48.870;12.542;2022-12-07T03:34:06;6.00;;;5.40;;
1475;SDS011;730;48.870;12.542;2022-12-07T03:36:40;5.78;;;4.60;;
1475;SDS011;730;48.870;12.542;2022-12-07T03:41:50;4.97;;;4.53;;
1475;SDS011;730;48.870;12.542;2022-12-07T03:44:17;6.70;;;5.82;;
1475;SDS011;730;48.870;12.542;2022-12-07T03:46:48;5.60;;;5.00;;
1475;SDS011;730;48.870;12.542;2022-12-07T03:55:06;6.53;;;5.20;;
1475;SDS011;730;48.870;12.542;2022-12-07T03:57:40;7.55;;;5.57;;
1475;SDS011;730;48.870;12.542;2022-12-07T04:00:10;5.93;;;5.07;;
1475;SDS011;730;48.870;12.542;2022-12-07T04:02:37;5.03;;;4.45;;
1475;SDS011;730;48.870;12.542;2022-12-07T04:05:03;6.60;;;5.13;;
1475;SDS011;730;48.870;12.542;2022-12-07T04:07:35;6.05;;;5.45;;
1475;SDS011;730;48.870;12.542;2022-12-07T04:10:02;6.68;;;6.07;;
1475;SDS011;730;48.870;12.542;2022-12-07T04:12:29;5.68;;;5.07;;
1475;SDS011;730;48.870;12.542;2022-12-07T04:14:55;6.22;;;4.90;;
1475;SDS011;730;48.870;12.542;2022-12-07T04:17:21;6.05;;;5.13;;
1475;SDS011;730;48.870;12.542;2022-12-07T04:19:47;5.70;;;5.13;;
1475;SDS011;730;48.870;12.542;2022-12-07T04:22:13;5.55;;;4.95;;
1475;SDS011;730;48.870;12.542;2022-12-07T04:24:41;5.88;;;5.28;;
1475;SDS011;730;48.870;12.542;2022-12-07T04:27:07;7.20;;;6.50;;
1475;SDS011;730;48.870;12.542;2022-12-07T04:29:34;6.53;;;5.88;;
1475;SDS011;730;48.870;12.542;2022-12-07T04:32:00;6.60;;;5.78;;
1475;SDS011;730;48.870;12.542;2022-12-07T04:34:26;6.53;;;5.72;;
1475;SDS011;730;48.870;12.542;2022-12-07T04:36:52;7.07;;;6.30;;
1475;SDS011;730;48.870;12.542;2022-12-07T04:39:22;7.15;;;6.45;;
1475;SDS011;730;48.870;12.542;2022-12-07T04:41:50;6.53;;;5.93;;
1475;SDS011;730;48.870;12.542;2022-12-07T04:44:17;7.72;;;6.32;;
1475;SDS011;730;48.870;12.542;2022-12-07T04:46:44;7.38;;;6.22;;
1475;SDS011;730;48.870;12.542;2022-12-07T04:49:11;7.63;;;6.82;;
1475;SDS011;730;48.870;12.542;2022-12-07T04:51:38;6.80;;;6.00;;
1475;SDS011;730;48.870;12.542;2022-12-07T04:54:04;8.57;;;7.30;;
1475;SDS011;730;48.870;12.542;2022-12-07T04:56:31;6.97;;;6.28;;
1475;SDS011;730;48.870;12.542;2022-12-07T04:58:57;8.25;;;6.88;;
1475;SDS011;730;48.870;12.542;2022-12-07T05:01:23;7.63;;;6.85;;
1475;SDS011;730;48.870;12.542;2022-12-07T05:03:50;7.60;;;6.72;;
1475;SDS011;730;48.870;12.542;2022-12-07T05:06:16;7.75;;;6.93;;
1475;SDS011;730;48.870;12.542;2022-12-07T05:08:42;9.10;;;7.47;;
1475;SDS011;730;48.870;12.542;2022-12-07T05:11:09;10.95;;;8.10;;
1475;SDS011;730;48.870;12.542;2022-12-07T05:13:55;8.00;;;7.20;;
1475;SDS011;730;48.870;12.542;2022-12-07T05:16:21;9.40;;;7.97;;
1475;SDS011;730;48.870;12.542;2022-12-07T05:18:47;7.95;;;6.85;;
1475;SDS011;730;48.870;12.542;2022-12-07T05:21:13;8.38;;;7.10;;
1475;SDS011;730;48.870;12.542;2022-12-07T05:23:39;8.93;;;8.05;;
1475;SDS011;730;48.870;12.542;2022-12-07T05:26:05;8.80;;;7.55;;
1475;SDS011;730;48.870;12.542;2022-12-07T05:28:31;9.65;;;7.70;;
1475;SDS011;730;48.870;12.542;2022-12-07T05:30:57;8.88;;;7.97;;
1475;SDS011;730;48.870;12.542;2022-12-07T05:33:23;10.30;;;6.85;;
1475;SDS011;730;48.870;12.542;2022-12-07T05:35:50;8.45;;;7.40;;
1475;SDS011;730;48.870;12.542;2022-12-07T05:38:16;8.70;;;7.28;;
1475;SDS011;730;48.870;12.542;2022-12-07T05:40:42;8.48;;;7.57;;
1475;SDS011;730;48.870;12.542;2022-12-07T05:43:08;8.95;;;7.40;;
1475;SDS011;730;48.870;12.542;2022-12-07T05:45:34;9.00;;;7.95;;
1475;SDS011;730;48.870;12.542;2022-12-07T05:48:00;11.20;;;8.15;;
1475;SDS011;730;48.870;12.542;2022-12-07T05:50:26;9.88;;;7.80;;
1475;SDS011;730;48.870;12.542;2022-12-07T05:52:53;10.00;;;9.00;;
1475;SDS011;730;48.870;12.542;2022-12-07T05:55:19;11.52;;;8.27;;
1475;SDS011;730;48.870;12.542;2022-12-07T05:57:46;10.45;;;7.88;;
1475;SDS011;730;48.870;12.542;2022-12-07T06:00:31;9.95;;;8.25;;
1475;SDS011;730;48.870;12.542;2022-12-07T06:02:57;9.82;;;8.63;;
1475;SDS011;730;48.870;12.542;2022-12-07T06:05:23;8.80;;;7.32;;
1475;SDS011;730;48.870;12.542;2022-12-07T06:07:49;10.82;;;8.63;;
1475;SDS011;730;48.870;12.542;2022-12-07T06:10:15;8.88;;;7.97;;
1475;SDS011;730;48.870;12.542;2022-12-07T06:12:41;9.68;;;8.48;;
1475;SDS011;730;48.870;12.542;2022-12-07T06:15:09;10.43;;;8.45;;
1475;SDS011;730;48.870;12.542;2022-12-07T06:17:36;10.02;;;8.45;;
1475;SDS011;730;48.870;12.542;2022-12-07T06:20:02;10.50;;;8.85;;
1475;SDS011;730;48.870;12.542;2022-12-07T06:22:29;9.60;;;8.05;;
1475;SDS011;730;48.870;12.542;2022-12-07T06:24:55;11.23;;;9.02;;
1475;SDS011;730;48.870;12.542;2022-12-07T06:27:21;11.75;;;9.18;;
1475;SDS011;730;48.870;12.542;2022-12-07T06:29:47;9.98;;;8.98;;
1475;SDS011;730;48.870;12.542;2022-12-07T06:32:13;10.80;;;9.18;;
1475;SDS011;730;48.870;12.542;2022-12-07T06:34:39;9.98;;;8.75;;
1475;SDS011;730;48.870;12.542;2022-12-07T06:37:05;13.45;;;9.88;;
1475;SDS011;730;48.870;12.542;2022-12-07T06:39:32;12.75;;;10.63;;
1475;SDS011;730;48.870;12.542;2022-12-07T06:41:58;13.93;;;11.68;;
1475;SDS011;730;48.870;12.542;2022-12-07T06:44:24;13.63;;;10.25;;
1475;SDS011;730;48.870;12.542;2022-12-07T06:46:51;11.65;;;8.95;;
1475;SDS011;730;48.870;12.542;2022-12-07T06:49:17;11.60;;;9.13;;
1475;SDS011;730;48.870;12.542;2022-12-07T06:51:44;12.88;;;9.43;;
1475;SDS011;730;48.870;12.542;2022-12-07T06:54:10;9.30;;;8.30;;
1475;SDS011;730;48.870;12.542;2022-12-07T06:56:37;10.50;;;9.23;;
1475;SDS011;730;48.870;12.542;2022-12-07T06:59:03;10.27;;;8.45;;
1475;SDS011;730;48.870;12.542;2022-12-07T07:01:31;9.40;;;7.88;;
1475;SDS011;730;48.870;12.542;2022-12-07T07:03:58;13.05;;;9.10;;
1475;SDS011;730;48.870;12.542;2022-12-07T07:06:25;12.00;;;9.45;;
1475;SDS011;730;48.870;12.542;2022-12-07T07:08:51;9.82;;;8.30;;
1475;SDS011;730;48.870;12.542;2022-12-07T07:11:17;14.68;;;11.85;;
1475;SDS011;730;48.870;12.542;2022-12-07T07:13:44;11.45;;;9.38;;
1475;SDS011;730;48.870;12.542;2022-12-07T07:16:10;12.95;;;11.55;;
1475;SDS011;730;48.870;12.542;2022-12-07T07:18:37;13.13;;;10.80;;
1475;SDS011;730;48.870;12.542;2022-12-07T07:21:03;14.73;;;12.57;;
1475;SDS011;730;48.870;12.542;2022-12-07T07:23:30;25.42;;;19.35;;
1475;SDS011;730;48.870;12.542;2022-12-07T07:25:56;40.60;;;27.67;;
1475;SDS011;730;48.870;12.542;2022-12-07T07:28:22;29.17;;;24.35;;
1475;SDS011;730;48.870;12.542;2022-12-07T07:30:48;24.35;;;18.92;;
1475;SDS011;730;48.870;12.542;2022-12-07T07:33:15;22.80;;;19.08;;
1475;SDS011;730;48.870;12.542;2022-12-07T07:35:41;23.73;;;19.23;;
1475;SDS011;730;48.870;12.542;2022-12-07T07:38:07;26.23;;;19.35;;
1475;SDS011;730;48.870;12.542;2022-12-07T07:40:34;18.05;;;15.73;;
1475;SDS011;730;48.870;12.542;2022-12-07T07:43:00;48.55;;;37.05;;
1475;SDS011;730;48.870;12.542;2022-12-07T07:45:27;137.77;;;86.50;;
1475;SDS011;730;48.870;12.542;2022-12-07T07:47:53;62.75;;;45.42;;
1475;SDS011;730;48.870;12.542;2022-12-07T07:50:20;54.88;;;39.20;;
1475;SDS011;730;48.870;12.542;2022-12-07T07:52:46;41.13;;;28.00;;
1475;SDS011;730;48.870;12.542;2022-12-07T07:55:13;33.88;;;25.48;;
1475;SDS011;730;48.870;12.542;2022-12-07T07:57:39;21.45;;;17.27;;
1475;SDS011;730;48.870;12.542;2022-12-07T08:00:10;18.10;;;15.68;;
1475;SDS011;730;48.870;12.542;2022-12-07T08:02:37;18.38;;;16.38;;
1475;SDS011;730;48.870;12.542;2022-12-07T08:05:03;20.00;;;17.05;;
1475;SDS011;730;48.870;12.542;2022-12-07T08:07:29;16.13;;;14.15;;
1475;SDS011;730;48.870;12.542;2022-12-07T08:09:55;14.70;;;12.02;;
1475;SDS011;730;48.870;12.542;2022-12-07T08:12:21;15.30;;;13.00;;
1475;SDS011;730;48.870;12.542;2022-12-07T08:14:48;15.52;;;12.98;;
1475;SDS011;730;48.870;12.542;2022-12-07T08:17:14;14.98;;;12.13;;
1475;SDS011;730;48.870;12.542;2022-12-07T08:19:40;17.15;;;14.25;;
1475;SDS011;730;48.870;12.542;2022-12-07T08:22:06;14.30;;;12.75;;
1475;SDS011;730;48.870;12.542;2022-12-07T08:24:33;12.63;;;10.80;;
1475;SDS011;730;48.870;12.542;2022-12-07T08:27:02;11.90;;;10.27;;
1475;SDS011;730;48.870;12.542;2022-12-07T08:29:28;12.70;;;10.52;;
1475;SDS011;730;48.870;12.542;2022-12-07T08:31:55;11.23;;;9.98;;
1475;SDS011;730;48.870;12.542;2022-12-07T08:34:21;12.25;;;10.45;;
1475;SDS011;730;48.870;12.542;2022-12-07T08:36:47;12.45;;;11.25;;
1475;SDS011;730;48.870;12.542;2022-12-07T08:39:13;19.00;;;17.17;;
1475;SDS011;730;48.870;12.542;2022-12-07T08:41:39;20.10;;;15.45;;
1475;SDS011;730;48.870;12.542;2022-12-07T08:44:05;40.67;;;27.23;;
1475;SDS011;730;48.870;12.542;2022-12-07T08:46:35;11.85;;;10.55;;
1475;SDS011;730;48.870;12.542;2022-12-07T08:49:12;11.95;;;10.73;;
1475;SDS011;730;48.870;12.542;2022-12-07T08:51:45;11.57;;;10.10;;
1475;SDS011;730;48.870;12.542;2022-12-07T08:54:13;9.98;;;8.88;;
1475;SDS011;730;48.870;12.542;2022-12-07T08:56:42;11.95;;;8.60;;
1475;SDS011;730;48.870;12.542;2022-12-07T08:59:09;9.75;;;8.75;;
1475;SDS011;730;48.870;12.542;2022-12-07T09:01:37;10.13;;;8.77;;
1475;SDS011;730;48.870;12.542;2022-12-07T09:04:03;10.65;;;9.25;;
1475;SDS011;730;48.870;12.542;2022-12-07T09:06:29;12.48;;;11.27;;
1475;SDS011;730;48.870;12.542;2022-12-07T09:08:56;11.07;;;9.98;;
1475;SDS011;730;48.870;12.542;2022-12-07T09:11:25;11.23;;;10.13;;
1475;SDS011;730;48.870;12.542;2022-12-07T09:13:51;12.30;;;10.02;;
1475;SDS011;730;48.870;12.542;2022-12-07T09:16:17;10.13;;;9.13;;
1475;SDS011;730;48.870;12.542;2022-12-07T09:18:43;10.05;;;8.80;;
1475;SDS011;730;48.870;12.542;2022-12-07T09:21:10;9.95;;;8.93;;
1475;SDS011;730;48.870;12.542;2022-12-07T09:23:36;11.25;;;9.82;;
1475;SDS011;730;48.870;12.542;2022-12-07T09:26:03;10.43;;;9.30;;
1475;SDS011;730;48.870;12.542;2022-12-07T09:28:30;11.05;;;9.00;;
1475;SDS011;730;48.870;12.542;2022-12-07T09:30:56;13.60;;;10.63;;
1475;SDS011;730;48.870;12.542;2022-12-07T09:33:22;13.20;;;10.20;;
1475;SDS011;730;48.870;12.542;2022-12-07T09:35:49;11.18;;;10.07;;
1475;SDS011;730;48.870;12.542;2022-12-07T09:38:17;12.18;;;10.45;;
1475;SDS011;730;48.870;12.542;2022-12-07T09:40:45;8.85;;;7.95;;
1475;SDS011;730;48.870;12.542;2022-12-07T09:43:13;10.30;;;9.23;;
1475;SDS011;730;48.870;12.542;2022-12-07T09:45:40;9.85;;;8.85;;
1475;SDS011;730;48.870;12.542;2022-12-07T09:51:20;11.35;;;8.85;;
1475;SDS011;730;48.870;12.542;2022-12-07T09:53:48;10.63;;;8.75;;
1475;SDS011;730;48.870;12.542;2022-12-07T09:56:15;9.20;;;8.27;;
1475;SDS011;730;48.870;12.542;2022-12-07T09:58:43;9.90;;;8.85;;
1475;SDS011;730;48.870;12.542;2022-12-07T10:03:50;9.13;;;8.27;;
1475;SDS011;730;48.870;12.542;2022-12-07T10:06:24;8.98;;;7.10;;
1475;SDS011;730;48.870;12.542;2022-12-07T10:08:50;9.38;;;8.38;;
1475;SDS011;730;48.870;12.542;2022-12-07T10:11:16;13.88;;;12.48;;
1475;SDS011;730;48.870;12.542;2022-12-07T10:13:50;8.82;;;7.55;;
1475;SDS011;730;48.870;12.542;2022-12-07T10:22:10;8.77;;;7.80;;
1475;SDS011;730;48.870;12.542;2022-12-07T10:24:38;7.80;;;6.90;;
1475;SDS011;730;48.870;12.542;2022-12-07T10:27:16;11.60;;;7.85;;
1475;SDS011;730;48.870;12.542;2022-12-07T10:29:49;7.72;;;6.75;;
1475;SDS011;730;48.870;12.542;2022-12-07T10:34:42;8.13;;;7.13;;
1475;SDS011;730;48.870;12.542;2022-12-07T10:39:51;8.10;;;6.60;;
1475;SDS011;730;48.870;12.542;2022-12-07T10:42:19;7.47;;;6.78;;
1475;SDS011;730;48.870;12.542;2022-12-07T10:44:48;9.15;;;6.50;;
1475;SDS011;730;48.870;12.542;2022-12-07T10:47:35;7.05;;;6.35;;
1475;SDS011;730;48.870;12.542;2022-12-07T11:08:55;7.40;;;6.53;;
1475;SDS011;730;48.870;12.542;2022-12-07T11:11:54;10.38;;;8.18;;
1475;SDS011;730;48.870;12.542;2022-12-07T11:17:26;12.77;;;8.95;;
1475;SDS011;730;48.870;12.542;2022-12-07T11:22:50;8.93;;;7.25;;
1475;SDS011;730;48.870;12.542;2022-12-07T11:25:51;7.55;;;6.40;;
1475;SDS011;730;48.870;12.542;2022-12-07T11:31:55;8.80;;;7.90;;
1475;SDS011;730;48.870;12.542;2022-12-07T11:37:23;9.75;;;8.38;;
1475;SDS011;730;48.870;12.542;2022-12-07T11:39:54;9.70;;;7.20;;
1475;SDS011;730;48.870;12.542;2022-12-07T11:42:26;12.82;;;11.60;;
1475;SDS011;730;48.870;12.542;2022-12-07T11:47:48;17.90;;;15.93;;
1475;SDS011;730;48.870;12.542;2022-12-07T11:53:03;15.80;;;14.40;;
1475;SDS011;730;48.870;12.542;2022-12-07T12:00:50;8.30;;;7.07;;
1475;SDS011;730;48.870;12.542;2022-12-07T12:03:27;10.73;;;8.57;;
1475;SDS011;730;48.870;12.542;2022-12-07T12:05:59;8.10;;;7.20;;
1475;SDS011;730;48.870;12.542;2022-12-07T12:08:43;12.45;;;6.93;;
1475;SDS011;730;48.870;12.542;2022-12-07T12:14:15;9.55;;;8.15;;
1475;SDS011;730;48.870;12.542;2022-12-07T12:24:42;12.30;;;8.07;;
1475;SDS011;730;48.870;12.542;2022-12-07T12:27:16;9.05;;;6.32;;
1475;SDS011;730;48.870;12.542;2022-12-07T12:29:56;8.52;;;6.57;;
1475;SDS011;730;48.870;12.542;2022-12-07T12:32:41;11.48;;;7.78;;
1475;SDS011;730;48.870;12.542;2022-12-07T12:38:20;8.18;;;7.35;;
1475;SDS011;730;48.870;12.542;2022-12-07T12:40:45;9.02;;;7.07;;
1475;SDS011;730;48.870;12.542;2022-12-07T13:01:56;11.82;;;8.55;;
1475;SDS011;730;48.870;12.542;2022-12-07T13:04:55;11.60;;;8.85;;
1475;SDS011;730;48.870;12.542;2022-12-07T13:20:59;11.83;;;10.63;;
1475;SDS011;730;48.870;12.542;2022-12-07T13:28:46;13.13;;;11.77;;
1475;SDS011;730;48.870;12.542;2022-12-07T13:33:57;9.40;;;6.55;;
1475;SDS011;730;48.870;12.542;2022-12-07T13:36:24;9.20;;;7.00;;
1475;SDS011;730;48.870;12.542;2022-12-07T13:39:14;9.20;;;7.50;;
1475;SDS011;730;48.870;12.542;2022-12-07T13:41:44;9.30;;;6.50;;
1475;SDS011;730;48.870;12.542;2022-12-07T13:44:16;7.22;;;6.22;;
1475;SDS011;730;48.870;12.542;2022-12-07T13:49:38;8.45;;;7.38;;
1475;SDS011;730;48.870;12.542;2022-12-07T13:52:16;7.47;;;6.70;;
1475;SDS011;730;48.870;12.542;2022-12-07T13:54:57;8.18;;;7.22;;
1475;SDS011;730;48.870;12.542;2022-12-07T13:57:27;9.23;;;6.78;;
1475;SDS011;730;48.870;12.542;2022-12-07T13:59:56;6.70;;;5.68;;
1475;SDS011;730;48.870;12.542;2022-12-07T14:02:27;10.00;;;6.85;;
1475;SDS011;730;48.870;12.542;2022-12-07T14:07:33;9.30;;;7.75;;
1475;SDS011;730;48.870;12.542;2022-12-07T14:10:04;10.07;;;8.27;;
1475;SDS011;730;48.870;12.542;2022-12-07T14:12:32;8.43;;;6.75;;
1475;SDS011;730;48.870;12.542;2022-12-07T14:15:02;9.70;;;8.50;;
1475;SDS011;730;48.870;12.542;2022-12-07T14:17:28;12.40;;;8.32;;
1475;SDS011;730;48.870;12.542;2022-12-07T14:20:02;15.88;;;12.02;;
1475;SDS011;730;48.870;12.542;2022-12-07T14:22:31;11.45;;;10.35;;
1475;SDS011;730;48.870;12.542;2022-12-07T14:25:00;8.70;;;7.85;;
1475;SDS011;730;48.870;12.542;2022-12-07T14:27:51;10.48;;;9.35;;
1475;SDS011;730;48.870;12.542;2022-12-07T14:30:18;10.15;;;9.20;;
1475;SDS011;730;48.870;12.542;2022-12-07T14:32:44;10.55;;;9.57;;
1475;SDS011;730;48.870;12.542;2022-12-07T14:35:14;9.68;;;8.30;;
1475;SDS011;730;48.870;12.542;2022-12-07T14:37:45;10.63;;;8.98;;
1475;SDS011;730;48.870;12.542;2022-12-07T14:40:13;10.20;;;9.10;;
1475;SDS011;730;48.870;12.542;2022-12-07T14:42:45;8.32;;;6.35;;
1475;SDS011;730;48.870;12.542;2022-12-07T14:45:13;7.72;;;5.25;;
1475;SDS011;730;48.870;12.542;2022-12-07T14:47:43;6.88;;;6.15;;
1475;SDS011;730;48.870;12.542;2022-12-07T14:50:11;7.43;;;6.65;;
1475;SDS011;730;48.870;12.542;2022-12-07T14:52:38;6.85;;;6.15;;
1475;SDS011;730;48.870;12.542;2022-12-07T14:55:11;9.35;;;6.60;;
1475;SDS011;730;48.870;12.542;2022-12-07T14:57:40;10.00;;;8.60;;
1475;SDS011;730;48.870;12.542;2022-12-07T15:00:15;9.38;;;8.35;;
1475;SDS011;730;48.870;12.542;2022-12-07T15:02:43;8.88;;;7.82;;
1475;SDS011;730;48.870;12.542;2022-12-07T15:05:12;10.57;;;8.70;;
1475;SDS011;730;48.870;12.542;2022-12-07T15:07:39;9.63;;;7.93;;
1475;SDS011;730;48.870;12.542;2022-12-07T15:10:06;9.20;;;7.10;;
1475;SDS011;730;48.870;12.542;2022-12-07T15:12:41;8.45;;;6.45;;
1475;SDS011;730;48.870;12.542;2022-12-07T15:15:07;8.50;;;7.60;;
1475;SDS011;730;48.870;12.542;2022-12-07T15:17:34;11.85;;;9.00;;
1475;SDS011;730;48.870;12.542;2022-12-07T15:20:00;10.88;;;8.85;;
1475;SDS011;730;48.870;12.542;2022-12-07T15:22:26;11.48;;;8.13;;
1475;SDS011;730;48.870;12.542;2022-12-07T15:24:52;11.95;;;9.20;;
1475;SDS011;730;48.870;12.542;2022-12-07T15:27:18;10.75;;;7.38;;
1475;SDS011;730;48.870;12.542;2022-12-07T15:29:44;9.35;;;7.75;;
1475;SDS011;730;48.870;12.542;2022-12-07T15:32:10;9.38;;;8.27;;
1475;SDS011;730;48.870;12.542;2022-12-07T15:34:37;9.40;;;7.40;;
1475;SDS011;730;48.870;12.542;2022-12-07T15:37:03;11.13;;;9.10;;
1475;SDS011;730;48.870;12.542;2022-12-07T15:39:29;10.55;;;7.25;;
1475;SDS011;730;48.870;12.542;2022-12-07T15:41:55;8.95;;;7.43;;
1475;SDS011;730;48.870;12.542;2022-12-07T15:44:21;9.10;;;7.38;;
1475;SDS011;730;48.870;12.542;2022-12-07T15:47:06;9.90;;;7.05;;
1475;SDS011;730;48.870;12.542;2022-12-07T15:49:32;12.60;;;9.25;;
1475;SDS011;730;48.870;12.542;2022-12-07T15:51:58;11.00;;;8.07;;
1475;SDS011;730;48.870;12.542;2022-12-07T15:54:26;11.05;;;8.48;;
1475;SDS011;730;48.870;12.542;2022-12-07T15:56:54;11.80;;;9.38;;
1475;SDS011;730;48.870;12.542;2022-12-07T15:59:20;11.52;;;9.32;;
1475;SDS011;730;48.870;12.542;2022-12-07T16:01:46;11.80;;;8.60;;
1475;SDS011;730;48.870;12.542;2022-12-07T16:04:12;11.07;;;8.43;;
1475;SDS011;730;48.870;12.542;2022-12-07T16:06:39;8.68;;;7.55;;
1475;SDS011;730;48.870;12.542;2022-12-07T16:09:05;11.73;;;8.82;;
1475;SDS011;730;48.870;12.542;2022-12-07T16:11:32;11.05;;;9.82;;
1475;SDS011;730;48.870;12.542;2022-12-07T16:14:00;11.95;;;8.13;;
1475;SDS011;730;48.870;12.542;2022-12-07T16:16:26;9.52;;;7.63;;
1475;SDS011;730;48.870;12.542;2022-12-07T16:18:52;9.57;;;8.30;;
1475;SDS011;730;48.870;12.542;2022-12-07T16:21:19;9.55;;;7.85;;
1475;SDS011;730;48.870;12.542;2022-12-07T16:23:45;9.85;;;7.60;;
1475;SDS011;730;48.870;12.542;2022-12-07T16:26:13;10.68;;;8.70;;
1475;SDS011;730;48.870;12.542;2022-12-07T16:28:41;16.05;;;8.48;;
1475;SDS011;730;48.870;12.542;2022-12-07T16:31:09;12.35;;;8.82;;
1475;SDS011;730;48.870;12.542;2022-12-07T16:33:40;11.07;;;8.60;;
1475;SDS011;730;48.870;12.542;2022-12-07T16:36:08;10.63;;;8.40;;
1475;SDS011;730;48.870;12.542;2022-12-07T16:38:36;10.10;;;7.95;;
1475;SDS011;730;48.870;12.542;2022-12-07T16:41:04;11.90;;;9.82;;
1475;SDS011;730;48.870;12.542;2022-12-07T16:43:31;11.80;;;8.50;;
1475;SDS011;730;48.870;12.542;2022-12-07T16:45:57;10.80;;;7.70;;
1475;SDS011;730;48.870;12.542;2022-12-07T16:48:23;13.30;;;9.85;;
1475;SDS011;730;48.870;12.542;2022-12-07T16:50:49;9.90;;;8.55;;
1475;SDS011;730;48.870;12.542;2022-12-07T16:53:19;11.68;;;8.65;;
1475;SDS011;730;48.870;12.542;2022-12-07T16:55:48;13.30;;;8.60;;
1475;SDS011;730;48.870;12.542;2022-12-07T16:58:15;12.52;;;9.52;;
1475;SDS011;730;48.870;12.542;2022-12-07T17:00:45;12.75;;;8.52;;
1475;SDS011;730;48.870;12.542;2022-12-07T17:03:11;13.68;;;10.52;;
1475;SDS011;730;48.870;12.542;2022-12-07T17:05:39;14.23;;;9.52;;
1475;SDS011;730;48.870;12.542;2022-12-07T17:08:07;13.90;;;10.38;;
1475;SDS011;730;48.870;12.542;2022-12-07T17:10:35;11.05;;;9.55;;
1475;SDS011;730;48.870;12.542;2022-12-07T17:13:03;12.00;;;9.00;;
1475;SDS011;730;48.870;12.542;2022-12-07T17:18:22;13.32;;;8.88;;
1475;SDS011;730;48.870;12.542;2022-12-07T17:20:48;11.55;;;9.75;;
1475;SDS011;730;48.870;12.542;2022-12-07T17:23:14;12.63;;;9.77;;
1475;SDS011;730;48.870;12.542;2022-12-07T17:25:41;10.65;;;8.75;;
1475;SDS011;730;48.870;12.542;2022-12-07T17:28:07;10.93;;;8.52;;
1475;SDS011;730;48.870;12.542;2022-12-07T17:30:33;11.38;;;9.52;;
1475;SDS011;730;48.870;12.542;2022-12-07T17:32:59;9.88;;;7.78;;
1475;SDS011;730;48.870;12.542;2022-12-07T17:35:25;13.90;;;10.48;;
1475;SDS011;730;48.870;12.542;2022-12-07T17:37:51;13.10;;;10.05;;
1475;SDS011;730;48.870;12.542;2022-12-07T17:40:17;9.88;;;8.23;;
1475;SDS011;730;48.870;12.542;2022-12-07T17:42:44;10.80;;;9.30;;
1475;SDS011;730;48.870;12.542;2022-12-07T17:45:12;20.80;;;8.15;;
1475;SDS011;730;48.870;12.542;2022-12-07T17:47:38;10.77;;;8.75;;
1475;SDS011;730;48.870;12.542;2022-12-07T17:50:05;10.23;;;8.40;;